Terminal Aerodrome Forecast
Issued by NWS

Home | Current Version | Previous Version | Text Only | Print | Product List | Glossary On
Versions: 1 2 3 4 5 6 7 8 9 10 11 12 13 14
000
FTAK31 PANC 221735
TAFAAQ
TAF
PAAQ 221735Z 2218/2318 00000KT P6SM FEW100 SCT200
     FM222200 15013KT P6SM SCT200
     FM230900 36009KT P6SM BKN200=

USA.gov is the U.S. government's official web portal to all federal, state and local government web resources and services.